Time;durP1;ratioP1;P1;durP2;ratioP2;P2;SDS_P1;SDS_P2;PMS_P1;PMS_P2;Temp;Humidity;BMP_temperature;BMP_pressure;BME280_temperature;BME280_humidity;BME280_pressure;Samples;Min_cycle;Max_cycle;Signal;HPM_P1;HPM_P2
2021/12/19 00:01:08;;;;;;;1.20;1.10;;;10.50;99.90;;;;;;6206678;23;20925;-73
2021/12/19 00:03:52;;;;;;;1.03;0.83;;;10.50;99.90;;;;;;6205132;23;20516;-72
2021/12/19 00:09:12;;;;;;;0.77;0.73;;;10.50;99.90;;;;;;6208184;23;20439;-72
2021/12/19 00:11:43;;;;;;;1.43;0.80;;;10.40;99.90;;;;;;6206615;23;20264;-72
2021/12/19 00:14:29;;;;;;;1.48;1.02;;;10.50;99.90;;;;;;6209582;23;20918;-72
2021/12/19 00:17:00;;;;;;;1.20;0.90;;;10.50;99.90;;;;;;6207188;23;20186;-71
2021/12/19 00:19:31;;;;;;;3.97;1.07;;;10.50;99.90;;;;;;6203075;23;20183;-72
2021/12/19 00:22:02;;;;;;;1.60;0.93;;;10.50;99.90;;;;;;6207082;23;20955;-72
2021/12/19 00:24:35;;;;;;;1.00;0.80;;;10.50;99.90;;;;;;6206531;23;20751;-73
2021/12/19 00:27:06;;;;;;;0.80;0.80;;;10.40;99.90;;;;;;6208068;23;20413;-72
2021/12/19 00:29:37;;;;;;;1.07;0.93;;;10.40;99.90;;;;;;6209913;23;20419;-71
2021/12/19 00:32:09;;;;;;;2.10;1.03;;;10.30;99.90;;;;;;6211559;23;20526;-72
2021/12/19 00:34:40;;;;;;;1.30;1.00;;;10.40;99.90;;;;;;6209035;23;20405;-71
2021/12/19 00:37:11;;;;;;;1.33;1.13;;;10.30;99.90;;;;;;6210894;23;20413;-71
2021/12/19 00:39:45;;;;;;;3.10;1.10;;;10.30;99.90;;;;;;6199575;23;20182;-71
2021/12/19 00:42:28;;;;;;;1.15;1.15;;;10.30;99.90;;;;;;6211340;23;20416;-71
2021/12/19 00:45:02;;;;;;;1.47;1.37;;;10.30;99.90;;;;;;6209797;23;20197;-71
2021/12/19 00:47:33;;;;;;;1.37;1.17;;;10.20;99.90;;;;;;6207428;23;20417;-72
2021/12/19 00:50:04;;;;;;;1.10;1.00;;;10.20;99.90;;;;;;6202008;23;20416;-72
2021/12/19 00:52:46;;;;;;;2.00;1.20;;;10.30;99.90;;;;;;6210585;23;20447;-71
2021/12/19 00:55:20;;;;;;;1.65;1.30;;;10.20;99.90;;;;;;6208670;23;20412;-70
2021/12/19 00:57:52;;;;;;;1.20;1.10;;;10.20;99.90;;;;;;6208323;23;20200;-70
2021/12/19 01:00:26;;;;;;;19.52;5.00;;;10.20;99.90;;;;;;6210681;23;20189;-71
2021/12/19 01:02:59;;;;;;;1.25;1.15;;;10.30;99.90;;;;;;6212210;23;20733;-70
2021/12/19 01:05:33;;;;;;;1.10;0.90;;;10.30;99.90;;;;;;6208894;23;20276;-73
2021/12/19 01:08:05;;;;;;;1.00;0.90;;;10.10;99.90;;;;;;6210617;23;20436;-72
2021/12/19 01:10:41;;;;;;;1.00;0.30;;;9.40;99.90;;;;;;6210559;23;20212;-71
2021/12/19 01:13:12;;;;;;;3.35;0.73;;;9.10;99.90;;;;;;6209358;23;20185;-72
2021/12/19 01:15:44;;;;;;;1.77;0.60;;;8.80;99.90;;;;;;6207552;23;20181;-71
2021/12/19 01:18:15;;;;;;;1.77;0.60;;;8.40;99.90;;;;;;6208094;23;20212;-71
2021/12/19 01:20:47;;;;;;;0.88;0.68;;;8.20;99.90;;;;;;6210224;23;20208;-70
2021/12/19 01:23:18;;;;;;;1.80;1.70;;;8.10;99.90;;;;;;6207531;23;20462;-70
2021/12/19 01:25:51;;;;;;;1.40;1.30;;;8.10;99.90;;;;;;6205221;23;20216;-72
2021/12/19 01:28:22;;;;;;;0.88;0.88;;;8.00;99.90;;;;;;6209529;23;20257;-73
2021/12/19 01:30:53;;;;;;;1.27;1.17;;;7.80;99.90;;;;;;6207754;23;20190;-71
2021/12/19 01:33:24;;;;;;;1.95;1.70;;;7.70;99.90;;;;;;6208480;23;20264;-71
2021/12/19 01:35:55;;;;;;;1.40;1.00;;;7.50;99.90;;;;;;6202272;23;20495;-71
2021/12/19 01:38:26;;;;;;;1.20;1.10;;;7.50;99.90;;;;;;6208266;23;20189;-71
2021/12/19 01:40:59;;;;;;;24.23;5.15;;;7.50;99.90;;;;;;6209345;23;20328;-70
2021/12/19 01:43:31;;;;;;;510.38;84.63;;;7.50;99.90;;;;;;6205395;23;20193;-73
2021/12/19 01:46:15;;;;;;;184.00;33.67;;;7.50;99.90;;;;;;6207653;23;20216;-71
2021/12/19 01:48:49;;;;;;;1.73;1.58;;;7.50;99.90;;;;;;6208108;23;20224;-73
2021/12/19 01:51:20;;;;;;;2.25;1.88;;;7.60;99.90;;;;;;6209355;23;20269;-70
2021/12/19 01:53:51;;;;;;;1.35;1.25;;;7.50;99.90;;;;;;6206747;23;20189;-69
2021/12/19 01:56:24;;;;;;;1.88;1.73;;;7.50;99.90;;;;;;6208769;23;20178;-70
2021/12/19 01:58:54;;;;;;;1.70;1.60;;;7.40;99.90;;;;;;6210943;23;20192;-70
2021/12/19 02:01:26;;;;;;;1.33;1.25;;;7.40;99.90;;;;;;6207527;23;20232;-71
2021/12/19 02:03:56;;;;;;;2.13;1.70;;;7.30;99.90;;;;;;6207616;23;20299;-71
2021/12/19 02:06:28;;;;;;;1.65;1.55;;;7.30;99.90;;;;;;6207275;23;20254;-71
2021/12/19 02:09:04;;;;;;;1.90;1.80;;;7.30;99.90;;;;;;6210363;23;20181;-68
2021/12/19 02:11:37;;;;;;;2.72;1.92;;;7.30;99.90;;;;;;6209642;23;20189;-68
2021/12/19 02:14:09;;;;;;;2.30;2.10;;;7.30;99.90;;;;;;6210614;23;20564;-68
2021/12/19 02:16:41;;;;;;;2.45;1.95;;;7.20;99.90;;;;;;6205451;23;20282;-70
2021/12/19 02:19:13;;;;;;;2.10;1.80;;;7.20;99.90;;;;;;6213454;23;20488;-72
2021/12/19 02:21:48;;;;;;;1.80;1.70;;;7.10;99.90;;;;;;6210841;23;20185;-73
2021/12/19 02:24:19;;;;;;;1.80;1.70;;;7.10;99.90;;;;;;6206688;23;20598;-70
2021/12/19 02:26:50;;;;;;;3.15;2.40;;;7.20;99.90;;;;;;6206968;23;20232;-70
2021/12/19 02:29:21;;;;;;;3.00;2.80;;;7.20;99.90;;;;;;6210565;23;20182;-72
2021/12/19 02:31:53;;;;;;;3.85;3.20;;;7.10;99.90;;;;;;6208956;23;20182;-73
2021/12/19 02:34:27;;;;;;;3.10;2.90;;;7.10;99.90;;;;;;6205185;23;20193;-74
2021/12/19 02:37:06;;;;;;;3.30;3.00;;;7.10;99.90;;;;;;6208823;23;20199;-73
2021/12/19 02:39:50;;;;;;;2.72;2.53;;;7.00;99.90;;;;;;6210238;23;20186;-72
2021/12/19 02:48:15;;;;;;;5.05;2.95;;;6.90;99.90;;;;;;6208265;23;20212;-75
2021/12/19 02:50:58;;;;;;;5.22;3.30;;;6.90;99.90;;;;;;6208761;23;20538;-75
2021/12/19 02:53:36;;;;;;;2.22;2.00;;;6.90;99.90;;;;;;6207976;23;20185;-70
2021/12/19 02:56:10;;;;;;;2.75;1.95;;;6.90;99.90;;;;;;6206576;23;20188;-72
2021/12/19 02:59:19;;;;;;;3.60;2.50;;;6.70;99.90;;;;;;6206041;23;20282;-80
2021/12/19 03:02:17;;;;;;;2.72;2.42;;;6.70;99.90;;;;;;6208569;23;20479;-75
2021/12/19 03:09:10;;;;;;;2.60;2.10;;;6.60;99.90;;;;;;6133578;23;20244;-68
2021/12/19 03:20:02;;;;;;;204.93;33.97;;;6.50;99.90;;;;;;6178695;23;20189;-75
2021/12/19 03:22:33;;;;;;;13.27;4.80;;;6.50;99.90;;;;;;6178838;23;20654;-68
2021/12/19 03:25:06;;;;;;;1.83;1.70;;;6.50;99.90;;;;;;6175973;23;20194;-69
2021/12/19 03:27:37;;;;;;;3.25;2.70;;;6.50;99.90;;;;;;6178913;23;20198;-68
2021/12/19 03:30:09;;;;;;;2.20;2.00;;;6.30;99.90;;;;;;6177765;23;20182;-68
2021/12/19 03:32:40;;;;;;;3.03;2.38;;;6.30;99.90;;;;;;6180545;23;20213;-66
2021/12/19 03:35:11;;;;;;;2.90;1.90;;;6.30;99.90;;;;;;6176976;23;20272;-66
2021/12/19 03:37:42;;;;;;;1.92;1.73;;;6.20;99.90;;;;;;6181078;23;20197;-65
2021/12/19 03:40:22;;;;;;;4.07;2.05;;;6.20;99.90;;;;;;6175568;23;20819;-66
2021/12/19 03:42:55;;;;;;;3.13;2.92;;;6.20;99.90;;;;;;6178170;23;20205;-66
2021/12/19 03:45:26;;;;;;;3.05;2.75;;;6.20;99.90;;;;;;6180064;23;20205;-65
2021/12/19 03:47:58;;;;;;;2.40;2.20;;;6.20;99.90;;;;;;6177844;23;20198;-66
2021/12/19 03:50:31;;;;;;;2.88;2.55;;;6.10;99.90;;;;;;6174649;23;20237;-66
2021/12/19 03:53:02;;;;;;;2.30;2.20;;;6.10;99.90;;;;;;6176687;23;20253;-65
2021/12/19 03:55:38;;;;;;;2.70;2.50;;;6.10;99.90;;;;;;6177108;23;20257;-70
2021/12/19 03:58:09;;;;;;;3.03;2.83;;;6.10;99.90;;;;;;6175740;23;20182;-69
2021/12/19 04:00:42;;;;;;;3.72;3.42;;;6.00;99.90;;;;;;6176623;23;20493;-66
2021/12/19 04:03:20;;;;;;;3.20;2.90;;;6.10;99.90;;;;;;6183360;23;20617;-67
2021/12/19 04:05:53;;;;;;;386.13;70.03;;;6.10;99.90;;;;;;6178009;23;20253;-68
2021/12/19 04:08:24;;;;;;;523.75;93.55;;;6.20;99.90;;;;;;6180199;23;20511;-72
2021/12/19 04:10:57;;;;;;;2.45;2.25;;;6.20;99.90;;;;;;6178253;23;20186;-68
2021/12/19 04:13:28;;;;;;;3.60;2.92;;;6.20;99.90;;;;;;6180066;23;20522;-69
2021/12/19 04:15:58;;;;;;;4.10;2.60;;;6.10;99.90;;;;;;6182132;23;20206;-68
2021/12/19 04:18:29;;;;;;;3.88;1.73;;;6.10;99.90;;;;;;6176454;23;20668;-68
2021/12/19 04:21:00;;;;;;;2.55;2.35;;;6.10;99.90;;;;;;6179667;23;20189;-70
2021/12/19 04:23:31;;;;;;;2.58;2.38;;;6.10;99.90;;;;;;6176945;23;20511;-69
2021/12/19 04:26:04;;;;;;;2.58;2.38;;;6.00;99.90;;;;;;6182206;23;20491;-69
2021/12/19 04:28:34;;;;;;;2.65;2.45;;;6.10;99.90;;;;;;6177067;23;20187;-70
2021/12/19 04:31:05;;;;;;;2.75;2.55;;;6.10;99.90;;;;;;6178172;23;20194;-69
2021/12/19 04:33:41;;;;;;;6.13;2.67;;;6.10;99.90;;;;;;6178263;23;20196;-68
2021/12/19 04:36:20;;;;;;;4.32;2.90;;;6.00;99.90;;;;;;6179498;23;20615;-69
2021/12/19 04:39:14;;;;;;;2.88;2.67;;;6.00;99.90;;;;;;6179128;23;20264;-69
2021/12/19 04:42:23;;;;;;;2.63;2.30;;;6.10;99.90;;;;;;6177625;23;20182;-68
2021/12/19 04:56:15;;;;;;;3.95;3.60;;;6.10;99.90;;;;;;6180198;23;20190;-68
2021/12/19 05:02:09;;;;;;;5.82;3.60;;;6.00;99.90;;;;;;6179926;23;20182;-69
2021/12/19 05:05:07;;;;;;;3.75;3.45;;;6.00;99.90;;;;;;6177795;23;20202;-68
2021/12/19 05:16:18;;;;;;;3.65;3.40;;;6.00;99.90;;;;;;6088902;23;20267;-68
2021/12/19 05:18:51;;;;;;;4.30;3.90;;;6.00;99.90;;;;;;6144164;23;20505;-68
2021/12/19 05:21:26;;;;;;;5.85;5.05;;;5.90;99.90;;;;;;6179790;23;20197;-68
2021/12/19 05:26:52;;;;;;;14.65;13.15;;;5.90;99.90;;;;;;6148244;23;20202;-68
2021/12/19 05:29:22;;;;;;;4.72;4.13;;;5.90;99.90;;;;;;6178826;23;20182;-68
2021/12/19 05:31:55;;;;;;;5.20;4.45;;;5.90;99.90;;;;;;6180825;23;20189;-68
2021/12/19 05:34:26;;;;;;;6.05;5.55;;;6.00;99.90;;;;;;6179793;23;20194;-69
2021/12/19 05:45:20;;;;;;;26.35;17.80;;;6.00;99.90;;;;;;6179443;23;20642;-69
2021/12/19 05:47:53;;;;;;;16.00;12.50;;;6.00;99.90;;;;;;6181763;23;20224;-67
2021/12/19 05:50:25;;;;;;;22.38;14.88;;;6.00;99.90;;;;;;6175869;23;20182;-68
2021/12/19 05:52:56;;;;;;;28.60;17.33;;;6.00;99.90;;;;;;6177316;23;20187;-68
2021/12/19 05:55:27;;;;;;;8.80;7.07;;;5.90;99.90;;;;;;6180842;23;20269;-69
2021/12/19 05:57:57;;;;;;;20.20;14.52;;;5.80;99.90;;;;;;6178958;23;20179;-70
2021/12/19 06:00:29;;;;;;;15.75;10.98;;;5.70;99.90;;;;;;6169210;23;20194;-69
2021/12/19 06:03:02;;;;;;;8.77;7.05;;;5.60;99.90;;;;;;6181047;23;20186;-67
2021/12/19 06:05:33;;;;;;;2.75;2.55;;;5.50;99.90;;;;;;6175939;23;20186;-67
2021/12/19 06:08:04;;;;;;;1.92;1.75;;;5.50;99.90;;;;;;6176460;23;20211;-69
2021/12/19 06:10:35;;;;;;;8.80;5.45;;;5.50;99.90;;;;;;6176939;23;20187;-68
2021/12/19 06:13:06;;;;;;;6.97;4.22;;;5.30;99.90;;;;;;6178075;23;20187;-69
2021/12/19 06:15:36;;;;;;;10.43;5.80;;;5.20;99.90;;;;;;6181397;23;20296;-68
2021/12/19 06:18:09;;;;;;;5.10;4.10;;;5.00;99.90;;;;;;6176609;23;20182;-68
2021/12/19 06:20:40;;;;;;;1.08;1.08;;;4.70;99.90;;;;;;6178579;23;20186;-68
2021/12/19 06:23:10;;;;;;;1.23;1.13;;;4.70;99.90;;;;;;6176796;23;20194;-68
2021/12/19 06:25:45;;;;;;;1.77;1.60;;;4.50;99.90;;;;;;6181063;23;20198;-69
2021/12/19 06:28:17;;;;;;;8.07;4.70;;;4.40;99.90;;;;;;6178057;23;20201;-68
2021/12/19 06:30:48;;;;;;;1.60;1.50;;;4.20;99.90;;;;;;6179135;23;20186;-68
2021/12/19 06:33:20;;;;;;;3.67;2.65;;;4.10;99.90;;;;;;6177167;23;20183;-68
2021/12/19 06:35:57;;;;;;;1.65;1.55;;;4.00;99.90;;;;;;6178507;23;20314;-68
2021/12/19 06:38:27;;;;;;;1.70;1.60;;;4.10;99.90;;;;;;6173953;23;20189;-68
2021/12/19 06:40:58;;;;;;;1.98;1.65;;;4.00;99.90;;;;;;6178703;23;20195;-70
2021/12/19 06:43:30;;;;;;;2.10;1.88;;;3.90;99.90;;;;;;6178331;23;20269;-70
2021/12/19 06:46:01;;;;;;;1.88;1.58;;;3.80;99.90;;;;;;6178830;23;20293;-68
2021/12/19 06:48:33;;;;;;;2.20;2.00;;;3.60;99.90;;;;;;6177231;23;20267;-72
2021/12/19 06:51:04;;;;;;;2.40;2.20;;;3.50;99.90;;;;;;6179291;23;20187;-73
2021/12/19 06:53:35;;;;;;;2.72;2.30;;;3.40;99.90;;;;;;6174011;23;20262;-68
2021/12/19 06:56:06;;;;;;;22.67;7.57;;;3.30;99.90;;;;;;6180972;23;20199;-67
2021/12/19 06:58:37;;;;;;;4.38;3.40;;;3.30;99.90;;;;;;6178359;23;20265;-67
2021/12/19 07:01:08;;;;;;;3.40;3.10;;;3.30;99.90;;;;;;6179666;23;20245;-67
2021/12/19 07:03:40;;;;;;;29.83;10.23;;;3.20;99.90;;;;;;6178681;23;20269;-68
2021/12/19 07:06:11;;;;;;;11.32;3.50;;;3.20;99.90;;;;;;6177963;23;20205;-67
2021/12/19 07:08:42;;;;;;;4.40;3.80;;;3.10;99.90;;;;;;6179963;23;20207;-68
2021/12/19 07:11:13;;;;;;;4.20;3.80;;;2.90;99.90;;;;;;6178395;23;20198;-69
2021/12/19 07:13:44;;;;;;;5.05;4.55;;;2.90;99.90;;;;;;6180268;23;20639;-68
2021/12/19 07:16:15;;;;;;;3.95;3.65;;;3.00;99.90;;;;;;6176450;23;20182;-68
2021/12/19 07:18:47;;;;;;;4.35;3.95;;;2.90;99.90;;;;;;6178498;23;20225;-68
2021/12/19 07:21:18;;;;;;;3.63;3.33;;;2.80;99.90;;;;;;6178510;23;20183;-68
2021/12/19 07:23:49;;;;;;;4.63;4.13;;;2.60;99.90;;;;;;6178358;23;20186;-68
2021/12/19 07:26:20;;;;;;;19.30;8.38;;;2.70;99.90;;;;;;6180505;23;20183;-69
2021/12/19 07:28:51;;;;;;;5.60;5.00;;;2.80;99.90;;;;;;6173934;23;20198;-68
2021/12/19 07:31:22;;;;;;;46.05;15.82;;;2.80;99.90;;;;;;6176854;23;20531;-68
2021/12/19 07:33:54;;;;;;;6.63;6.03;;;2.80;99.90;;;;;;6178259;23;20188;-68
2021/12/19 07:36:29;;;;;;;7.30;6.65;;;2.80;99.90;;;;;;6178304;23;20208;-68
2021/12/19 07:39:05;;;;;;;11.75;8.23;;;2.80;99.90;;;;;;6175954;23;20197;-68
2021/12/19 07:41:36;;;;;;;12.75;10.23;;;2.90;99.90;;;;;;6175009;23;20194;-68
2021/12/19 07:44:08;;;;;;;9.93;8.50;;;2.80;99.90;;;;;;6173784;23;20186;-68
2021/12/19 07:46:39;;;;;;;9.57;8.68;;;2.60;99.90;;;;;;6180602;23;20530;-69
2021/12/19 07:49:12;;;;;;;8.23;7.40;;;2.70;99.90;;;;;;6175759;23;20202;-68
2021/12/19 07:51:43;;;;;;;7.13;6.45;;;2.80;99.90;;;;;;6178207;23;20211;-68
2021/12/19 07:54:13;;;;;;;7.55;6.80;;;2.60;99.90;;;;;;6177115;23;20186;-69
2021/12/19 07:56:45;;;;;;;6.05;5.65;;;2.60;99.90;;;;;;6176471;23;20202;-68
2021/12/19 07:59:16;;;;;;;5.88;5.32;;;2.60;99.90;;;;;;6178854;23;20488;-68
2021/12/19 08:01:48;;;;;;;5.93;4.57;;;2.60;99.90;;;;;;6177413;23;20183;-68
2021/12/19 08:04:20;;;;;;;5.63;5.15;;;2.70;99.90;;;;;;6176723;23;20516;-68
2021/12/19 08:06:51;;;;;;;5.63;5.03;;;2.60;99.90;;;;;;6181069;23;20468;-69
2021/12/19 08:09:35;;;;;;;5.32;4.85;;;2.60;99.90;;;;;;6209908;23;20225;-68
2021/12/19 08:12:07;;;;;;;4.97;4.57;;;2.50;99.90;;;;;;6207578;23;20501;-68
2021/12/19 08:14:38;;;;;;;5.53;5.07;;;2.50;99.90;;;;;;6209816;23;20185;-67
2021/12/19 08:17:08;;;;;;;8.70;5.70;;;2.40;99.90;;;;;;6208058;23;20188;-67
2021/12/19 08:19:41;;;;;;;6.00;5.38;;;2.50;99.90;;;;;;6206911;23;20178;-68
2021/12/19 08:22:13;;;;;;;6.15;5.53;;;2.40;99.90;;;;;;6206071;23;20268;-67
2021/12/19 08:24:45;;;;;;;6.32;5.72;;;2.40;99.90;;;;;;6208044;23;20192;-67
2021/12/19 08:27:16;;;;;;;6.22;5.72;;;2.40;99.90;;;;;;6210633;23;20198;-68
2021/12/19 08:29:47;;;;;;;7.15;6.53;;;2.40;99.90;;;;;;6205508;23;20202;-68
2021/12/19 08:32:18;;;;;;;8.57;7.80;;;2.60;99.90;;;;;;6208246;23;20189;-67
2021/12/19 08:34:51;;;;;;;13.90;8.52;;;2.70;99.90;;;;;;6206615;23;20193;-68
2021/12/19 08:37:22;;;;;;;8.18;7.38;;;2.60;99.90;;;;;;6210498;23;20182;-67
2021/12/19 08:39:52;;;;;;;8.40;7.35;;;2.40;99.90;;;;;;6208067;23;20216;-67
2021/12/19 08:42:23;;;;;;;9.55;8.38;;;2.50;99.90;;;;;;6207484;23;20182;-67
2021/12/19 08:44:54;;;;;;;12.55;9.30;;;2.40;99.90;;;;;;6209654;23;20197;-66
2021/12/19 08:47:25;;;;;;;8.80;7.90;;;2.60;99.90;;;;;;6208747;23;20189;-67
2021/12/19 08:49:57;;;;;;;10.35;9.25;;;2.60;99.90;;;;;;6208142;23;20228;-67
2021/12/19 08:52:28;;;;;;;9.35;8.45;;;2.60;99.90;;;;;;6205829;23;20182;-66
2021/12/19 08:55:00;;;;;;;9.88;8.88;;;2.50;99.90;;;;;;6211414;23;20189;-67
2021/12/19 08:57:31;;;;;;;9.63;8.73;;;2.40;99.90;;;;;;6210275;23;20275;-67
2021/12/19 09:00:02;;;;;;;10.38;9.27;;;2.40;99.90;;;;;;6209690;23;20587;-67
2021/12/19 09:02:32;;;;;;;10.00;9.10;;;2.40;99.90;;;;;;6210158;23;20654;-67
2021/12/19 09:05:05;;;;;;;9.82;8.82;;;2.50;99.90;;;;;;6208485;23;20182;-67
2021/12/19 09:07:36;;;;;;;9.82;8.82;;;2.40;99.90;;;;;;6209548;23;20202;-67
2021/12/19 09:10:09;;;;;;;10.07;9.13;;;2.40;99.90;;;;;;6211556;23;20281;-67
2021/12/19 09:12:40;;;;;;;9.18;8.35;;;2.50;99.90;;;;;;6210965;23;20187;-67
2021/12/19 09:15:11;;;;;;;14.88;11.90;;;2.50;99.90;;;;;;6210931;23;20193;-67
2021/12/19 09:17:42;;;;;;;11.32;10.05;;;2.50;99.90;;;;;;6211997;23;20495;-67
2021/12/19 09:20:15;;;;;;;11.50;10.15;;;2.50;99.90;;;;;;6209973;23;20182;-67
2021/12/19 09:22:46;;;;;;;12.30;10.90;;;2.50;99.90;;;;;;6205740;23;20679;-67
2021/12/19 09:25:20;;;;;;;13.30;11.93;;;2.50;99.90;;;;;;6211771;23;20182;-67
2021/12/19 09:27:51;;;;;;;13.32;11.82;;;2.60;99.90;;;;;;6209677;23;20212;-68
2021/12/19 09:30:24;;;;;;;12.50;11.30;;;2.50;99.90;;;;;;6209540;23;20208;-67
2021/12/19 09:32:55;;;;;;;11.95;10.55;;;2.50;99.90;;;;;;6209505;23;20190;-68
2021/12/19 09:35:28;;;;;;;14.27;10.90;;;2.50;99.90;;;;;;6208254;23;20197;-67
2021/12/19 09:37:59;;;;;;;14.18;11.25;;;2.50;99.90;;;;;;6211086;23;20213;-67
2021/12/19 09:40:34;;;;;;;13.50;11.82;;;2.50;99.90;;;;;;6207514;23;20518;-67
2021/12/19 09:43:10;;;;;;;16.65;12.07;;;2.50;99.90;;;;;;6209698;23;20200;-67
2021/12/19 09:45:40;;;;;;;14.32;12.82;;;2.50;99.90;;;;;;6209628;23;20509;-68
2021/12/19 09:48:11;;;;;;;13.82;12.30;;;2.60;99.90;;;;;;6210487;23;20527;-68
2021/12/19 09:50:44;;;;;;;14.27;11.95;;;2.40;99.90;;;;;;6207190;23;20202;-67
2021/12/19 09:53:15;;;;;;;14.32;12.25;;;2.50;99.90;;;;;;6206974;23;20186;-67
2021/12/19 09:55:46;;;;;;;13.75;12.02;;;2.30;99.90;;;;;;6212150;23;20189;-67
2021/12/19 09:58:17;;;;;;;17.20;13.85;;;2.50;99.90;;;;;;6208772;23;20182;-67
2021/12/19 10:00:48;;;;;;;16.58;13.65;;;2.50;99.90;;;;;;6209473;23;20178;-68
2021/12/19 10:03:19;;;;;;;16.63;13.35;;;2.50;99.90;;;;;;6207964;23;20186;-67
2021/12/19 10:05:51;;;;;;;16.23;13.25;;;2.50;99.90;;;;;;6211353;23;20296;-68
2021/12/19 10:08:25;;;;;;;16.33;13.93;;;2.60;99.90;;;;;;6208850;23;20205;-69
2021/12/19 10:10:59;;;;;;;16.48;13.48;;;2.60;99.90;;;;;;6208799;23;20645;-69
2021/12/19 10:13:34;;;;;;;18.98;14.15;;;2.60;99.90;;;;;;6210428;23;20186;-70
2021/12/19 10:16:24;;;;;;;18.30;13.88;;;2.60;99.90;;;;;;6208329;23;20185;-70
2021/12/19 10:18:59;;;;;;;15.35;11.93;;;2.50;99.90;;;;;;6207746;23;20630;-70
2021/12/19 10:21:37;;;;;;;16.65;12.55;;;2.50;99.90;;;;;;6208962;23;20189;-70
2021/12/19 10:24:10;;;;;;;17.63;13.60;;;2.40;99.90;;;;;;6208643;23;20195;-71
2021/12/19 10:26:47;;;;;;;15.18;13.10;;;2.40;99.90;;;;;;6211611;23;20181;-70
2021/12/19 10:29:17;;;;;;;16.33;13.27;;;2.60;99.90;;;;;;6205344;23;20211;-70
2021/12/19 10:32:05;;;;;;;17.80;13.00;;;2.60;99.90;;;;;;6208507;23;20282;-71
2021/12/19 10:34:35;;;;;;;19.20;14.52;;;2.50;99.90;;;;;;6208010;23;20189;-71
2021/12/19 10:37:34;;;;;;;17.60;12.18;;;2.60;99.90;;;;;;6210950;23;20687;-70
2021/12/19 10:40:06;;;;;;;14.43;11.13;;;2.50;99.90;;;;;;6209079;23;20182;-72
2021/12/19 10:42:46;;;;;;;14.52;11.27;;;2.50;99.90;;;;;;6208575;23;20182;-71
2021/12/19 10:45:32;;;;;;;13.50;10.40;;;2.50;99.90;;;;;;6208398;23;20197;-71
2021/12/19 10:48:28;;;;;;;15.27;11.50;;;2.60;99.90;;;;;;6209504;23;20182;-71
2021/12/19 10:51:02;;;;;;;15.43;11.80;;;2.60;99.90;;;;;;6173088;23;20201;-71
2021/12/19 10:53:38;;;;;;;17.63;10.27;;;2.60;99.90;;;;;;6206717;23;20189;-71
2021/12/19 10:56:12;;;;;;;14.25;10.95;;;2.60;99.90;;;;;;6209024;23;20185;-71
2021/12/19 10:58:45;;;;;;;15.82;11.68;;;2.50;99.90;;;;;;6210814;23;20644;-70
2021/12/19 11:01:21;;;;;;;14.70;12.68;;;2.60;99.90;;;;;;6206907;23;20626;-71
2021/12/19 11:03:57;;;;;;;19.10;12.60;;;2.60;99.90;;;;;;6209190;23;20557;-70
2021/12/19 11:06:32;;;;;;;13.30;10.93;;;2.70;99.90;;;;;;6209316;23;20547;-71
2021/12/19 11:09:08;;;;;;;16.10;12.52;;;2.70;99.90;;;;;;6209558;23;20188;-70
2021/12/19 11:11:47;;;;;;;18.52;13.13;;;2.70;99.90;;;;;;6208515;23;20204;-71
2021/12/19 11:14:21;;;;;;;15.65;12.02;;;2.70;99.90;;;;;;6210398;23;20182;-71
2021/12/19 11:16:53;;;;;;;19.80;12.23;;;2.60;99.90;;;;;;6206779;23;20186;-71
2021/12/19 11:19:25;;;;;;;18.40;12.77;;;2.50;99.90;;;;;;6205063;23;20189;-71
2021/12/19 11:22:23;;;;;;;18.60;12.30;;;2.60;99.90;;;;;;6206664;23;20230;-70
2021/12/19 11:24:59;;;;;;;15.05;11.07;;;2.40;99.90;;;;;;6207828;23;20529;-70
2021/12/19 11:27:32;;;;;;;14.57;11.70;;;2.50;99.90;;;;;;6210199;23;20197;-71
2021/12/19 11:30:05;;;;;;;13.70;11.63;;;2.50;99.90;;;;;;6205919;23;20209;-71
2021/12/19 11:32:42;;;;;;;13.63;10.10;;;2.60;99.90;;;;;;6211123;23;20186;-70
2021/12/19 11:35:18;;;;;;;15.00;10.45;;;2.60;99.90;;;;;;6206941;23;20185;-71
2021/12/19 11:37:54;;;;;;;13.43;10.55;;;2.60;99.90;;;;;;6210630;23;20285;-70
2021/12/19 11:40:30;;;;;;;13.35;9.38;;;2.70;99.90;;;;;;6206538;23;20177;-70
2021/12/19 11:43:05;;;;;;;13.00;10.60;;;2.70;99.90;;;;;;6208681;23;20186;-70
2021/12/19 11:45:39;;;;;;;15.25;10.18;;;2.70;99.90;;;;;;6206820;23;20182;-70
2021/12/19 11:48:22;;;;;;;13.35;9.18;;;2.60;99.90;;;;;;6209713;23;20197;-70
2021/12/19 11:50:55;;;;;;;10.57;8.95;;;2.60;99.90;;;;;;6208303;23;20209;-70
2021/12/19 11:53:28;;;;;;;11.73;8.65;;;2.50;99.90;;;;;;6205906;23;20552;-70
2021/12/19 11:56:10;;;;;;;11.05;9.23;;;2.60;99.90;;;;;;6210674;23;20262;-71
2021/12/19 11:58:48;;;;;;;10.93;8.73;;;2.60;99.90;;;;;;6208130;23;20182;-70
2021/12/19 12:01:25;;;;;;;10.35;8.18;;;2.70;99.90;;;;;;6208871;23;20182;-70
2021/12/19 12:03:57;;;;;;;9.68;7.90;;;2.70;99.90;;;;;;6206270;23;20189;-70
2021/12/19 12:06:39;;;;;;;13.60;9.85;;;2.70;99.90;;;;;;6210376;23;20510;-70
2021/12/19 12:09:26;;;;;;;11.00;8.18;;;2.80;99.90;;;;;;6209881;23;20185;-70
2021/12/19 12:12:25;;;;;;;10.60;7.78;;;2.80;99.90;;;;;;6205974;23;20205;-70
2021/12/19 12:15:07;;;;;;;10.13;8.43;;;2.80;99.90;;;;;;6207882;23;20502;-70
2021/12/19 12:17:51;;;;;;;12.25;8.88;;;2.70;99.90;;;;;;6210789;23;20185;-70
2021/12/19 12:20:32;;;;;;;11.30;8.77;;;2.70;99.90;;;;;;6207184;23;20245;-70
2021/12/19 12:23:09;;;;;;;10.77;9.05;;;2.80;99.90;;;;;;6207419;23;20646;-70
2021/12/19 12:25:43;;;;;;;13.48;9.63;;;2.80;99.90;;;;;;6210462;23;20293;-70
2021/12/19 12:28:20;;;;;;;13.82;9.50;;;2.80;99.90;;;;;;6209826;23;20185;-70
2021/12/19 12:30:54;;;;;;;12.35;10.07;;;2.80;99.90;;;;;;6208624;23;20201;-70
2021/12/19 12:33:32;;;;;;;12.20;9.00;;;2.80;99.90;;;;;;6210856;23;20266;-70
2021/12/19 12:36:03;;;;;;;12.93;9.57;;;2.70;99.90;;;;;;6210869;23;20182;-70
2021/12/19 12:38:34;;;;;;;12.20;9.95;;;2.60;99.90;;;;;;6210340;23;20658;-70
2021/12/19 12:41:16;;;;;;;10.60;9.00;;;2.70;99.90;;;;;;6208971;23;20264;-71
2021/12/19 12:43:48;;;;;;;12.98;9.35;;;2.70;99.90;;;;;;6210250;23;20185;-70
2021/12/19 12:46:20;;;;;;;11.27;9.60;;;2.70;99.90;;;;;;6201074;23;20185;-70
2021/12/19 12:48:56;;;;;;;12.27;9.93;;;2.80;99.90;;;;;;6209365;23;20185;-70
2021/12/19 12:51:35;;;;;;;13.32;9.88;;;2.80;99.90;;;;;;6208750;23;20280;-70
2021/12/19 12:54:08;;;;;;;10.25;8.35;;;2.80;99.90;;;;;;6208848;23;20198;-70
2021/12/19 12:56:45;;;;;;;15.75;10.82;;;2.80;99.90;;;;;;6212506;23;20204;-70
2021/12/19 12:59:19;;;;;;;11.38;9.05;;;2.80;99.90;;;;;;6209940;23;20266;-70
2021/12/19 13:01:52;;;;;;;11.77;10.10;;;2.70;99.90;;;;;;6210744;23;20438;-70
2021/12/19 13:04:24;;;;;;;12.82;10.68;;;2.80;99.90;;;;;;6210328;23;20182;-70
2021/12/19 13:07:00;;;;;;;14.13;11.98;;;2.80;99.90;;;;;;6209719;23;20500;-70
2021/12/19 13:09:34;;;;;;;12.07;8.85;;;2.80;99.90;;;;;;6208819;23;20304;-70
2021/12/19 13:12:15;;;;;;;13.55;9.07;;;2.80;99.90;;;;;;6209063;23;20303;-70
2021/12/19 13:14:54;;;;;;;13.45;8.70;;;2.70;99.90;;;;;;6209722;23;20190;-70
2021/12/19 13:17:26;;;;;;;12.77;9.32;;;2.80;99.90;;;;;;6210140;23;20182;-69
2021/12/19 13:20:01;;;;;;;11.57;9.10;;;2.80;99.90;;;;;;6210463;23;20189;-69
2021/12/19 13:22:35;;;;;;;14.20;10.23;;;2.80;99.90;;;;;;6210016;23;20185;-69
2021/12/19 13:25:11;;;;;;;12.68;8.45;;;2.80;99.90;;;;;;6210718;23;20212;-69
2021/12/19 13:27:43;;;;;;;13.32;10.15;;;2.80;99.90;;;;;;6210387;23;20189;-69
2021/12/19 13:30:19;;;;;;;12.43;9.20;;;2.80;99.90;;;;;;6209292;23;20185;-69
2021/12/19 13:32:53;;;;;;;10.50;8.48;;;2.80;99.90;;;;;;6211734;23;20197;-69
2021/12/19 13:35:27;;;;;;;14.77;10.60;;;2.80;99.90;;;;;;6206823;23;20257;-69
2021/12/19 13:38:01;;;;;;;8.68;7.60;;;2.90;99.90;;;;;;6207614;23;20181;-69
2021/12/19 13:40:34;;;;;;;9.75;7.40;;;2.80;99.90;;;;;;6207747;23;21045;-68
2021/12/19 13:43:06;;;;;;;9.23;7.90;;;2.80;99.90;;;;;;6211256;23;20182;-71
2021/12/19 13:45:50;;;;;;;12.20;7.55;;;2.80;99.90;;;;;;6209911;23;20274;-69
2021/12/19 13:48:28;;;;;;;13.45;9.10;;;2.80;99.90;;;;;;6209905;23;20260;-69
2021/12/19 13:51:04;;;;;;;12.18;8.30;;;2.90;99.90;;;;;;6209530;23;20182;-69
2021/12/19 13:53:39;;;;;;;13.15;9.63;;;2.90;99.90;;;;;;6206923;23;20221;-69
2021/12/19 13:56:13;;;;;;;10.43;8.10;;;2.80;99.90;;;;;;6210951;23;20555;-69
2021/12/19 13:58:46;;;;;;;14.27;10.25;;;2.80;99.90;;;;;;6208697;23;20642;-69
2021/12/19 14:01:22;;;;;;;16.02;10.52;;;2.90;99.90;;;;;;6209089;23;20627;-69
2021/12/19 14:03:56;;;;;;;16.70;11.63;;;2.80;99.90;;;;;;6207974;23;20316;-69
2021/12/19 14:06:31;;;;;;;14.30;11.05;;;2.90;99.90;;;;;;6209468;23;20182;-70
2021/12/19 14:09:04;;;;;;;14.45;10.27;;;2.80;99.90;;;;;;6206538;23;20208;-69
2021/12/19 14:11:36;;;;;;;14.10;11.10;;;2.80;99.90;;;;;;6208932;23;20198;-69
2021/12/19 14:14:11;;;;;;;15.20;10.68;;;2.80;99.90;;;;;;6202319;23;20188;-70
2021/12/19 14:16:46;;;;;;;14.15;10.85;;;2.90;99.90;;;;;;6209362;23;20189;-69
2021/12/19 14:19:23;;;;;;;15.02;10.50;;;2.90;99.90;;;;;;6207275;23;20212;-69